createdAt,value
2023-05-19T00:00:33.124Z,8.00
2023-05-19T00:03:21.811Z,7.70
2023-05-19T00:05:53.886Z,6.70
2023-05-19T00:08:24.710Z,5.90
2023-05-19T00:10:52.893Z,7.10
2023-05-19T00:13:22.042Z,6.40
2023-05-19T00:15:51.156Z,6.70
2023-05-19T00:18:18.896Z,6.10
2023-05-19T00:20:46.639Z,6.90
2023-05-19T00:23:14.338Z,6.80
2023-05-19T00:25:42.359Z,7.60
2023-05-19T00:28:10.039Z,6.00
2023-05-19T00:30:37.805Z,7.60
2023-05-19T00:33:05.663Z,6.60
2023-05-19T00:35:33.478Z,6.20
2023-05-19T00:38:01.165Z,6.10
2023-05-19T00:40:32.203Z,7.50
2023-05-19T00:43:00.535Z,6.80
2023-05-19T00:45:29.064Z,6.60
2023-05-19T00:47:57.346Z,8.70
2023-05-19T00:50:25.185Z,7.30
2023-05-19T00:52:53.342Z,7.50
2023-05-19T00:55:26.646Z,7.30
2023-05-19T00:57:56.967Z,13.30
2023-05-19T01:00:24.793Z,8.50
2023-05-19T01:02:54.276Z,11.00
2023-05-19T01:05:22.570Z,11.00
2023-05-19T01:07:55.606Z,10.60
2023-05-19T01:10:23.253Z,9.50
2023-05-19T01:12:50.967Z,13.60
2023-05-19T01:15:18.869Z,10.40
2023-05-19T01:18:16.801Z,10.90
2023-05-19T01:21:03.814Z,10.30
2023-05-19T01:24:09.119Z,8.90
2023-05-19T01:26:49.138Z,9.40
2023-05-19T01:30:17.399Z,9.40
2023-05-19T01:32:48.090Z,9.30
2023-05-19T01:35:17.062Z,9.50
2023-05-19T01:37:46.949Z,8.50
2023-05-19T01:40:15.267Z,8.80
2023-05-19T01:42:43.122Z,8.30
2023-05-19T01:45:12.318Z,8.60
2023-05-19T01:47:50.598Z,6.40
2023-05-19T01:50:18.410Z,9.20
2023-05-19T01:52:46.130Z,6.00
2023-05-19T01:55:14.035Z,6.20
2023-05-19T01:58:31.312Z,5.20
2023-05-19T02:01:38.009Z,8.80
2023-05-19T02:04:40.302Z,5.90
2023-05-19T02:07:26.625Z,5.90
2023-05-19T02:10:14.752Z,7.50
2023-05-19T02:12:46.172Z,7.40
2023-05-19T02:15:23.036Z,6.40
2023-05-19T02:17:54.498Z,9.20
2023-05-19T02:20:22.396Z,6.40
2023-05-19T02:22:50.522Z,9.80
2023-05-19T02:25:18.315Z,8.90
2023-05-19T02:27:46.503Z,6.60
2023-05-19T02:30:14.287Z,8.10
2023-05-19T02:32:42.049Z,7.30
2023-05-19T02:35:10.099Z,9.60
2023-05-19T02:37:37.797Z,8.10
2023-05-19T02:40:06.712Z,7.00
2023-05-19T02:42:34.377Z,9.30
2023-05-19T02:45:02.060Z,9.40
2023-05-19T02:47:29.902Z,12.90
2023-05-19T02:49:57.598Z,14.40
2023-05-19T02:52:25.306Z,12.60
2023-05-19T02:54:52.987Z,10.30
2023-05-19T02:57:20.785Z,11.20
2023-05-19T02:59:48.964Z,10.20
2023-05-19T03:02:16.723Z,7.30
2023-05-19T03:04:45.697Z,8.50
2023-05-19T03:07:13.678Z,8.30
2023-05-19T03:09:41.612Z,7.60
2023-05-19T03:12:09.470Z,7.60
2023-05-19T03:14:38.748Z,8.10
2023-05-19T03:17:10.261Z,10.80
2023-05-19T03:19:38.257Z,9.00
2023-05-19T03:22:06.441Z,7.90
2023-05-19T03:24:34.576Z,9.40
2023-05-19T03:27:05.329Z,8.30
2023-05-19T03:29:33.360Z,6.70
2023-05-19T03:32:01.784Z,6.80
2023-05-19T03:34:29.599Z,9.70
2023-05-19T03:36:57.205Z,7.20
2023-05-19T03:39:24.960Z,8.30
2023-05-19T03:41:52.872Z,9.00
2023-05-19T03:44:21.040Z,8.70
2023-05-19T03:46:48.771Z,7.60
2023-05-19T03:49:16.471Z,11.20
2023-05-19T03:51:44.337Z,8.90
2023-05-19T03:54:12.068Z,8.20
2023-05-19T03:56:43.331Z,9.30
2023-05-19T03:59:12.327Z,7.80
2023-05-19T04:01:40.007Z,9.00
2023-05-19T04:04:07.885Z,18.00
2023-05-19T04:06:36.283Z,12.30
2023-05-19T04:09:13.797Z,10.60
2023-05-19T04:11:42.954Z,12.60
2023-05-19T04:14:10.788Z,8.60
2023-05-19T04:16:38.657Z,10.20
2023-05-19T04:19:06.391Z,9.50
2023-05-19T04:21:34.225Z,10.20
2023-05-19T04:24:02.675Z,7.20
2023-05-19T04:26:31.236Z,17.30
2023-05-19T04:28:59.065Z,20.00
2023-05-19T04:31:28.716Z,13.60
2023-05-19T04:33:56.460Z,11.30
2023-05-19T04:36:24.216Z,28.60
2023-05-19T04:38:54.950Z,25.40
2023-05-19T04:41:23.077Z,15.40
2023-05-19T04:43:50.795Z,11.60
2023-05-19T04:46:18.646Z,18.80
2023-05-19T04:48:46.442Z,12.00
2023-05-19T04:51:14.430Z,9.60
2023-05-19T04:53:42.751Z,9.60
2023-05-19T04:56:11.455Z,9.80
2023-05-19T04:58:40.600Z,9.10
2023-05-19T05:01:09.645Z,17.70
2023-05-19T05:03:37.762Z,10.00
2023-05-19T05:06:06.661Z,12.60
2023-05-19T05:08:35.499Z,12.10
2023-05-19T05:11:04.230Z,14.10
2023-05-19T05:13:32.431Z,14.80
2023-05-19T05:16:00.664Z,12.90
2023-05-19T05:18:28.728Z,10.50
2023-05-19T05:20:56.782Z,12.30
2023-05-19T05:23:25.587Z,9.70
2023-05-19T05:25:53.873Z,7.90
2023-05-19T05:28:21.734Z,9.80
2023-05-19T05:30:50.510Z,10.10
2023-05-19T05:33:19.616Z,12.00
2023-05-19T05:35:47.329Z,11.70
2023-05-19T05:38:15.022Z,11.90
2023-05-19T05:40:42.670Z,11.00
2023-05-19T05:43:10.480Z,10.70
2023-05-19T05:45:38.195Z,9.80
2023-05-19T05:48:07.108Z,11.20
2023-05-19T05:50:35.331Z,9.60
2023-05-19T05:53:05.313Z,13.10
2023-05-19T05:55:33.752Z,11.70
2023-05-19T05:58:02.477Z,11.10
2023-05-19T06:00:30.476Z,13.90
2023-05-19T06:02:59.272Z,11.90
2023-05-19T06:05:27.289Z,11.80
2023-05-19T06:07:55.034Z,15.40
2023-05-19T06:10:23.459Z,11.60
2023-05-19T06:12:51.369Z,11.10
2023-05-19T06:15:19.078Z,8.70
2023-05-19T06:17:46.842Z,11.20
2023-05-19T06:20:15.202Z,10.40
2023-05-19T06:22:43.115Z,11.40
2023-05-19T06:25:10.987Z,11.30
2023-05-19T06:27:38.665Z,10.90
2023-05-19T06:30:08.804Z,10.80
2023-05-19T06:32:36.583Z,9.80
2023-05-19T06:35:05.091Z,10.30
2023-05-19T06:37:32.842Z,10.10
2023-05-19T06:40:00.577Z,10.70
2023-05-19T06:42:28.323Z,12.60
2023-05-19T06:44:56.036Z,11.50
2023-05-19T06:47:23.863Z,11.50
2023-05-19T06:49:55.457Z,9.20
2023-05-19T06:52:23.830Z,8.50
2023-05-19T06:54:51.534Z,11.30
2023-05-19T06:57:19.263Z,11.00
2023-05-19T06:59:46.961Z,12.60
2023-05-19T07:02:14.873Z,12.90
2023-05-19T07:04:43.057Z,11.00
2023-05-19T07:07:10.747Z,10.60
2023-05-19T07:09:38.512Z,10.90
2023-05-19T07:12:06.478Z,10.20
2023-05-19T07:14:36.541Z,9.40
2023-05-19T07:17:05.086Z,14.10
2023-05-19T07:19:32.884Z,9.40
2023-05-19T07:22:00.815Z,10.40
2023-05-19T07:24:28.520Z,17.80
2023-05-19T07:26:56.400Z,10.60
2023-05-19T07:29:24.198Z,9.90
2023-05-19T07:31:54.319Z,8.60
2023-05-19T07:34:22.292Z,9.40
2023-05-19T07:36:51.604Z,11.00
2023-05-19T07:39:19.692Z,9.50
2023-05-19T07:41:52.729Z,11.50
2023-05-19T07:44:20.430Z,6.90
2023-05-19T07:46:48.543Z,9.90
2023-05-19T07:49:16.158Z,11.40
2023-05-19T07:51:44.005Z,8.30
2023-05-19T07:54:11.728Z,11.50
2023-05-19T07:56:40.667Z,14.30
2023-05-19T07:59:08.379Z,11.00
2023-05-19T08:01:36.275Z,9.10
2023-05-19T08:04:04.173Z,9.10
2023-05-19T08:06:32.176Z,8.60
2023-05-19T08:09:00.081Z,21.40
2023-05-19T08:11:28.213Z,13.10
2023-05-19T08:13:56.691Z,11.60
2023-05-19T08:16:24.575Z,10.30
2023-05-19T08:18:57.069Z,9.40
2023-05-19T08:21:28.064Z,12.40
2023-05-19T08:23:57.243Z,11.30
2023-05-19T08:26:24.954Z,8.80
2023-05-19T08:28:52.649Z,11.00
2023-05-19T08:31:20.957Z,9.80
2023-05-19T08:33:48.706Z,9.10
2023-05-19T08:36:16.398Z,9.20
2023-05-19T08:38:44.323Z,10.80
2023-05-19T08:41:12.349Z,8.50
2023-05-19T08:43:40.093Z,10.30
2023-05-19T08:46:08.374Z,10.50
2023-05-19T08:48:42.732Z,12.10
2023-05-19T08:51:41.557Z,10.50
2023-05-19T08:54:17.923Z,15.50
2023-05-19T08:56:46.615Z,10.50
2023-05-19T08:59:15.966Z,10.70
2023-05-19T09:01:48.452Z,8.80
2023-05-19T09:04:17.402Z,11.00
2023-05-19T09:06:45.459Z,9.10
2023-05-19T09:09:13.663Z,8.30
2023-05-19T09:11:45.274Z,8.60
2023-05-19T09:14:12.942Z,9.00
2023-05-19T09:16:41.463Z,8.10
2023-05-19T09:19:15.606Z,7.60
2023-05-19T09:21:45.750Z,12.20
2023-05-19T09:24:13.616Z,8.50
2023-05-19T09:26:42.951Z,8.90
2023-05-19T09:29:16.604Z,7.10
2023-05-19T09:31:52.585Z,9.10
2023-05-19T09:34:22.454Z,10.70
2023-05-19T09:36:51.772Z,9.00
2023-05-19T09:39:24.132Z,9.50
2023-05-19T09:41:54.585Z,10.80
2023-05-19T09:44:30.601Z,8.50
2023-05-19T09:46:58.951Z,10.20
2023-05-19T09:49:30.352Z,11.70
2023-05-19T09:52:03.394Z,10.90
2023-05-19T09:54:33.905Z,9.20
2023-05-19T09:57:07.045Z,8.00
2023-05-19T09:59:38.976Z,9.60
2023-05-19T10:02:17.989Z,21.70
2023-05-19T10:04:48.421Z,9.70
2023-05-19T10:07:18.485Z,10.40
2023-05-19T10:09:46.863Z,11.30
2023-05-19T10:12:15.807Z,9.50
2023-05-19T10:14:44.032Z,10.30
2023-05-19T10:17:14.235Z,11.00
2023-05-19T10:19:45.218Z,10.20
2023-05-19T10:22:13.010Z,9.80
2023-05-19T10:24:40.810Z,11.00
2023-05-19T10:27:14.792Z,10.60
2023-05-19T10:29:49.904Z,11.70
2023-05-19T10:32:24.954Z,8.40
2023-05-19T10:35:27.819Z,10.00
2023-05-19T10:38:29.911Z,12.90
2023-05-19T10:41:25.054Z,10.60
2023-05-19T10:44:24.863Z,10.10
2023-05-19T10:46:54.357Z,9.50
2023-05-19T10:49:24.322Z,11.90
2023-05-19T10:51:56.371Z,10.40
2023-05-19T10:54:47.477Z,11.40
2023-05-19T10:57:26.607Z,8.10
2023-05-19T10:59:57.361Z,7.60
2023-05-19T11:02:44.080Z,9.20
2023-05-19T11:05:18.574Z,8.80
2023-05-19T11:08:07.330Z,8.80
2023-05-19T11:10:35.269Z,9.80
2023-05-19T11:13:06.591Z,9.60
2023-05-19T11:15:37.355Z,9.90
2023-05-19T11:18:05.381Z,8.40
2023-05-19T11:20:35.002Z,7.80
2023-05-19T11:23:08.360Z,9.00
2023-05-19T11:25:54.006Z,9.60
2023-05-19T11:28:28.025Z,9.40
2023-05-19T11:30:59.019Z,13.40
2023-05-19T11:33:27.455Z,10.10
2023-05-19T11:36:00.355Z,8.30
2023-05-19T11:38:30.169Z,8.80
2023-05-19T11:40:58.289Z,8.90
2023-05-19T11:43:26.495Z,10.00
2023-05-19T11:45:55.992Z,7.50
2023-05-19T11:48:25.322Z,8.90
2023-05-19T11:50:53.717Z,10.10
2023-05-19T11:53:21.568Z,8.50
2023-05-19T11:55:49.876Z,9.20
2023-05-19T11:58:17.933Z,9.80
2023-05-19T12:00:48.607Z,8.70
2023-05-19T12:03:26.580Z,9.40
2023-05-19T12:05:54.662Z,8.20
2023-05-19T12:08:23.317Z,9.50
2023-05-19T12:10:52.506Z,9.30
2023-05-19T12:13:22.732Z,8.90
2023-05-19T12:15:52.572Z,8.80
2023-05-19T12:18:21.135Z,11.10
2023-05-19T12:20:49.432Z,9.30
2023-05-19T12:23:17.263Z,9.50
2023-05-19T12:25:45.355Z,7.90
2023-05-19T12:28:16.474Z,9.00
2023-05-19T12:30:52.086Z,8.90
2023-05-19T12:33:22.820Z,7.70
2023-05-19T12:35:51.942Z,10.10
2023-05-19T12:38:20.903Z,11.20
2023-05-19T12:40:50.221Z,7.90
2023-05-19T12:43:23.360Z,9.40
2023-05-19T12:45:52.564Z,9.10
2023-05-19T12:48:23.025Z,8.90
2023-05-19T12:50:55.575Z,11.80
2023-05-19T12:53:28.077Z,10.90
2023-05-19T12:55:56.019Z,9.40
2023-05-19T12:58:24.347Z,10.90
2023-05-19T13:00:59.804Z,8.70
2023-05-19T13:03:28.035Z,12.80
2023-05-19T13:05:55.977Z,9.60
2023-05-19T13:08:24.958Z,10.20
2023-05-19T13:10:53.045Z,10.20
2023-05-19T13:13:22.127Z,11.10
2023-05-19T13:15:50.170Z,9.60
2023-05-19T13:18:18.683Z,10.40
2023-05-19T13:20:49.239Z,10.60
2023-05-19T13:23:17.530Z,9.60
2023-05-19T13:25:47.216Z,11.20
2023-05-19T13:28:15.109Z,11.70
2023-05-19T13:30:44.103Z,9.60
2023-05-19T13:33:12.058Z,9.90
2023-05-19T13:35:40.162Z,11.40
2023-05-19T13:38:10.642Z,10.30
2023-05-19T13:40:40.117Z,10.30
2023-05-19T13:43:08.816Z,9.60
2023-05-19T13:45:37.538Z,14.20
2023-05-19T13:48:07.502Z,8.30
2023-05-19T13:50:35.705Z,10.90
2023-05-19T13:53:03.959Z,10.60
2023-05-19T13:55:33.009Z,8.70
2023-05-19T13:58:00.834Z,10.90
2023-05-19T14:00:28.635Z,11.30
2023-05-19T14:02:56.552Z,10.20
2023-05-19T14:05:24.346Z,12.00
2023-05-19T14:07:52.021Z,12.40
2023-05-19T14:10:20.514Z,14.60
2023-05-19T14:13:12.425Z,10.70
2023-05-19T14:15:37.827Z,11.90
2023-05-19T14:18:07.041Z,17.00
2023-05-19T14:20:47.106Z,14.00
2023-05-19T14:23:17.002Z,13.90
2023-05-19T14:25:44.729Z,12.80
2023-05-19T14:28:12.379Z,12.30
2023-05-19T14:30:40.542Z,13.20
2023-05-19T14:33:09.423Z,11.30
2023-05-19T14:35:37.191Z,13.10
2023-05-19T14:38:04.927Z,11.50
2023-05-19T14:40:32.939Z,13.40
2023-05-19T14:43:00.948Z,13.80
2023-05-19T14:45:29.081Z,13.60
2023-05-19T14:47:56.870Z,14.40
2023-05-19T14:50:24.654Z,13.80
2023-05-19T14:52:52.324Z,14.70
2023-05-19T14:55:20.123Z,15.00
2023-05-19T14:57:47.811Z,12.50
2023-05-19T15:00:17.757Z,14.60
2023-05-19T15:02:46.204Z,12.40
2023-05-19T15:05:14.062Z,16.60
2023-05-19T15:07:41.741Z,14.50
2023-05-19T15:10:10.195Z,18.40
2023-05-19T15:12:38.043Z,17.40
2023-05-19T15:15:07.101Z,18.90
2023-05-19T15:17:35.453Z,15.10
2023-05-19T15:20:03.506Z,16.30
2023-05-19T15:22:31.220Z,16.00
2023-05-19T15:24:59.452Z,17.10
2023-05-19T15:27:27.610Z,17.60
2023-05-19T15:29:55.459Z,19.00
2023-05-19T15:32:23.201Z,17.30
2023-05-19T15:34:51.028Z,16.70
2023-05-19T15:37:18.752Z,15.40
2023-05-19T15:39:46.541Z,15.50
2023-05-19T15:42:14.217Z,15.60
2023-05-19T15:44:42.179Z,15.40
2023-05-19T15:47:09.878Z,16.50
2023-05-19T15:49:37.524Z,17.90
2023-05-19T15:52:05.726Z,19.80
2023-05-19T15:54:33.451Z,15.20
2023-05-19T15:57:01.120Z,13.90
2023-05-19T15:59:28.892Z,16.50
2023-05-19T16:01:56.712Z,15.00
2023-05-19T16:04:24.514Z,18.00
2023-05-19T16:06:52.216Z,15.40
2023-05-19T16:09:19.932Z,13.10
2023-05-19T16:11:47.703Z,15.70
2023-05-19T16:14:15.462Z,16.70
2023-05-19T16:16:44.656Z,14.10
2023-05-19T16:19:12.498Z,13.60
2023-05-19T16:21:40.262Z,14.60
2023-05-19T16:24:08.006Z,14.80
2023-05-19T16:26:35.771Z,16.00
2023-05-19T16:29:03.432Z,18.50
2023-05-19T16:31:31.244Z,14.80
2023-05-19T16:33:59.062Z,19.80
2023-05-19T16:36:27.029Z,15.80
2023-05-19T16:38:54.774Z,16.80
2023-05-19T16:41:22.506Z,15.30
2023-05-19T16:43:50.545Z,12.70
2023-05-19T16:46:18.534Z,17.10
2023-05-19T16:48:46.228Z,15.70
2023-05-19T16:51:13.946Z,16.40
2023-05-19T16:53:41.562Z,14.90
2023-05-19T16:56:09.326Z,17.90
2023-05-19T16:58:37.273Z,17.20
2023-05-19T17:01:05.159Z,19.10
2023-05-19T17:03:33.078Z,16.10
2023-05-19T17:06:01.201Z,19.40
2023-05-19T17:08:28.953Z,16.90
2023-05-19T17:10:56.667Z,19.70
2023-05-19T17:13:24.395Z,18.80
2023-05-19T17:15:55.249Z,18.80
2023-05-19T17:18:22.949Z,16.30
2023-05-19T17:20:50.690Z,15.80
2023-05-19T17:23:18.303Z,16.70
2023-05-19T17:25:46.078Z,17.70
2023-05-19T17:28:13.842Z,16.30
2023-05-19T17:30:41.523Z,16.00
2023-05-19T17:33:09.346Z,17.50
2023-05-19T17:35:37.061Z,17.30
2023-05-19T17:38:04.770Z,17.30
2023-05-19T17:40:34.170Z,17.00
2023-05-19T17:43:02.262Z,21.40
2023-05-19T17:45:30.002Z,17.30
2023-05-19T17:47:57.997Z,16.70
2023-05-19T17:50:26.575Z,18.80
2023-05-19T17:52:56.176Z,20.80
2023-05-19T17:55:29.837Z,18.60
2023-05-19T17:57:58.315Z,18.70
2023-05-19T18:00:26.517Z,19.60
2023-05-19T18:02:56.894Z,20.10
2023-05-19T18:05:25.842Z,21.30
2023-05-19T18:07:56.430Z,23.10
2023-05-19T18:10:26.319Z,23.20
2023-05-19T18:12:53.912Z,20.70
2023-05-19T18:15:21.687Z,19.10
2023-05-19T18:17:49.349Z,19.20
2023-05-19T18:20:17.054Z,25.20
2023-05-19T18:22:44.847Z,21.80
2023-05-19T18:25:12.634Z,18.10
2023-05-19T18:27:42.553Z,18.10
2023-05-19T18:30:10.946Z,21.40
2023-05-19T18:32:38.957Z,21.70
2023-05-19T18:35:07.561Z,19.80
2023-05-19T18:37:35.762Z,20.40
2023-05-19T18:40:03.818Z,20.30
2023-05-19T18:42:31.569Z,20.70
2023-05-19T18:44:59.246Z,18.50
2023-05-19T18:47:26.904Z,21.20
2023-05-19T18:49:54.822Z,16.60
2023-05-19T18:52:22.592Z,16.80
2023-05-19T18:54:50.838Z,18.80
2023-05-19T18:57:18.589Z,20.60
2023-05-19T18:59:46.514Z,21.60
2023-05-19T19:02:14.167Z,23.00
2023-05-19T19:04:42.259Z,23.90
2023-05-19T19:07:09.994Z,21.00
2023-05-19T19:09:37.772Z,21.20
2023-05-19T19:12:05.860Z,18.00
2023-05-19T19:14:33.523Z,20.30
2023-05-19T19:17:01.285Z,23.60
2023-05-19T19:19:30.560Z,23.30
2023-05-19T19:21:58.514Z,20.60
2023-05-19T19:24:26.751Z,17.50
2023-05-19T19:26:54.612Z,20.20
2023-05-19T19:29:22.387Z,19.60
2023-05-19T19:31:50.530Z,19.30
2023-05-19T19:34:19.931Z,18.10
2023-05-19T19:36:47.926Z,21.70
2023-05-19T19:39:15.692Z,21.40
2023-05-19T19:41:43.770Z,23.30
2023-05-19T19:44:11.847Z,24.60
2023-05-19T19:46:39.815Z,27.10
2023-05-19T19:49:07.701Z,42.50
2023-05-19T19:51:35.530Z,31.70
2023-05-19T19:54:03.200Z,25.20
2023-05-19T19:56:30.913Z,23.20
2023-05-19T19:58:59.394Z,19.50
2023-05-19T20:01:27.893Z,22.80
2023-05-19T20:03:57.783Z,22.70
2023-05-19T20:06:25.985Z,20.60
2023-05-19T20:08:53.762Z,17.90
2023-05-19T20:11:23.751Z,18.50
2023-05-19T20:13:52.331Z,19.20
2023-05-19T20:16:20.122Z,21.60
2023-05-19T20:18:47.893Z,19.80
2023-05-19T20:21:15.707Z,18.50
2023-05-19T20:23:43.431Z,19.60
2023-05-19T20:26:13.164Z,22.80
2023-05-19T20:28:41.661Z,21.10
2023-05-19T20:31:09.488Z,24.10
2023-05-19T20:33:37.217Z,18.30
2023-05-19T20:36:08.117Z,20.40
2023-05-19T20:38:35.883Z,20.90
2023-05-19T20:41:04.000Z,18.40
2023-05-19T20:43:33.028Z,22.50
2023-05-19T20:46:01.756Z,15.70
2023-05-19T20:48:29.438Z,26.00
2023-05-19T20:50:57.252Z,24.40
2023-05-19T20:53:24.970Z,23.30
2023-05-19T20:55:52.752Z,23.80
2023-05-19T20:58:20.429Z,23.70
2023-05-19T21:00:53.539Z,23.90
2023-05-19T21:03:23.390Z,22.00
2023-05-19T21:05:51.419Z,26.70
2023-05-19T21:08:19.112Z,23.40
2023-05-19T21:10:47.197Z,28.60
2023-05-19T21:13:14.899Z,25.70
2023-05-19T21:15:42.616Z,25.20
2023-05-19T21:18:12.046Z,24.20
2023-05-19T21:20:40.043Z,23.10
2023-05-19T21:23:07.842Z,22.80
2023-05-19T21:25:35.863Z,18.00
2023-05-19T21:28:03.663Z,24.70
2023-05-19T21:30:31.502Z,28.10
2023-05-19T21:32:59.457Z,28.90
2023-05-19T21:35:27.344Z,28.70
2023-05-19T21:37:55.674Z,27.40
2023-05-19T21:40:23.702Z,24.30
2023-05-19T21:42:51.324Z,28.80
2023-05-19T21:45:19.010Z,29.50
2023-05-19T21:47:46.975Z,27.40
2023-05-19T21:50:17.485Z,27.10
2023-05-19T21:52:45.148Z,28.10
2023-05-19T21:55:12.838Z,23.90
2023-05-19T21:57:40.523Z,27.30
2023-05-19T22:00:12.876Z,27.40
2023-05-19T22:02:40.961Z,26.60
2023-05-19T22:05:09.342Z,29.90
2023-05-19T22:07:37.902Z,28.30
2023-05-19T22:10:06.088Z,25.80
2023-05-19T22:12:34.315Z,26.70
2023-05-19T22:15:02.932Z,24.90
2023-05-19T22:17:30.763Z,25.50
2023-05-19T22:19:58.504Z,29.00
2023-05-19T22:22:26.236Z,24.00
2023-05-19T22:24:53.869Z,31.90
2023-05-19T22:27:21.526Z,30.30
2023-05-19T22:29:49.194Z,27.90
2023-05-19T22:32:18.407Z,24.90
2023-05-19T22:34:46.403Z,27.00
2023-05-19T22:37:14.329Z,31.60
2023-05-19T22:39:42.150Z,26.80
2023-05-19T22:42:09.882Z,25.50
2023-05-19T22:44:37.536Z,27.10
2023-05-19T22:47:05.245Z,25.70
2023-05-19T22:49:32.988Z,29.10
2023-05-19T22:52:00.775Z,25.90
2023-05-19T22:54:28.446Z,27.30
2023-05-19T22:56:56.178Z,17.70
2023-05-19T22:59:23.818Z,27.10
2023-05-19T23:01:51.770Z,28.70
2023-05-19T23:04:19.503Z,22.90
2023-05-19T23:06:49.441Z,28.80
2023-05-19T23:09:18.042Z,28.10
2023-05-19T23:11:46.186Z,24.80
2023-05-19T23:14:13.963Z,24.80
2023-05-19T23:16:42.008Z,23.60
2023-05-19T23:19:09.741Z,24.40
2023-05-19T23:21:37.400Z,19.30
2023-05-19T23:24:06.528Z,23.80
2023-05-19T23:26:34.216Z,22.30
2023-05-19T23:29:01.998Z,21.20
2023-05-19T23:31:29.731Z,23.30
2023-05-19T23:33:57.617Z,19.40
2023-05-19T23:36:25.277Z,22.90
2023-05-19T23:38:53.243Z,19.60
2023-05-19T23:41:21.453Z,22.20
2023-05-19T23:43:49.154Z,19.70
2023-05-19T23:46:17.363Z,23.90
2023-05-19T23:48:45.570Z,20.00
2023-05-19T23:51:13.396Z,26.30
2023-05-19T23:53:41.118Z,23.00
2023-05-19T23:56:08.834Z,23.90
2023-05-19T23:58:36.460Z,16.70
